Time;durP1;ratioP1;P1;durP2;ratioP2;P2;SDS_P1;SDS_P2;PMS_P1;PMS_P2;Temp;Humidity;BMP_temperature;BMP_pressure;BME280_temperature;BME280_humidity;BME280_pressure;Samples;Min_cycle;Max_cycle;Signal;HPM_P1;HPM_P2
2022/10/12 00:00:18;;;;;;;15.70;4.22;;;;;;;10.58;51.15;102698.09;7396545;19;19998;-59
2022/10/12 00:02:44;;;;;;;15.15;4.55;;;;;;;10.52;51.11;102702.03;7396078;19;19998;-59
2022/10/12 00:05:10;;;;;;;20.13;4.55;;;;;;;10.42;51.40;102696.69;7397344;19;20013;-59
2022/10/12 00:07:35;;;;;;;15.63;4.35;;;;;;;10.42;51.38;102699.41;7395299;19;20001;-59
2022/10/12 00:10:01;;;;;;;14.10;4.38;;;;;;;10.44;51.39;102689.03;7394664;19;20391;-60
2022/10/12 00:12:27;;;;;;;13.98;4.10;;;;;;;10.55;50.99;102701.41;7395961;19;19991;-59
2022/10/12 00:14:52;;;;;;;17.40;4.25;;;;;;;10.52;50.98;102702.03;7396406;19;19995;-59
2022/10/12 00:17:18;;;;;;;11.40;4.05;;;;;;;10.52;50.90;102694.63;7395083;19;20570;-59
2022/10/12 00:19:44;;;;;;;13.30;4.13;;;;;;;10.49;50.92;102691.69;7395665;19;20047;-59
2022/10/12 00:22:09;;;;;;;14.68;4.38;;;;;;;10.44;51.02;102702.69;7394192;19;20009;-59
2022/10/12 00:24:35;;;;;;;12.27;3.85;;;;;;;10.53;50.86;102696.25;7395211;19;20017;-59
2022/10/12 00:27:01;;;;;;;10.88;4.15;;;;;;;10.43;50.83;102692.84;7393577;19;20002;-59
2022/10/12 00:29:33;;;;;;;11.35;3.88;;;;;;;10.22;51.06;102701.31;7394875;19;20007;-59
2022/10/12 00:31:59;;;;;;;14.18;4.22;;;;;;;10.20;51.37;102706.22;7395852;19;20026;-59
2022/10/12 00:34:24;;;;;;;12.20;4.10;;;;;;;10.12;51.57;102709.63;7395523;19;19991;-59
2022/10/12 00:36:50;;;;;;;14.98;4.20;;;;;;;9.95;51.61;102699.16;7394924;19;20109;-59
2022/10/12 00:39:15;;;;;;;13.77;4.43;;;;;;;9.97;51.78;102697.78;7394840;19;20002;-58
2022/10/12 00:41:43;;;;;;;12.63;4.10;;;;;;;9.93;51.74;102704.91;7396432;19;20155;-59
2022/10/12 00:44:39;;;;;;;13.35;4.35;;;;;;;9.93;52.05;102704.91;7394706;19;20003;-59
2022/10/12 00:47:21;;;;;;;12.85;3.85;;;;;;;10.08;51.49;102698.47;7394194;19;20001;-59
2022/10/12 00:50:19;;;;;;;12.80;4.05;;;;;;;9.94;51.93;102703.81;7392233;19;20009;-59
2022/10/12 00:53:10;;;;;;;14.15;4.50;;;;;;;9.92;51.78;102700.59;7393664;19;20002;-59
2022/10/12 00:55:39;;;;;;;15.38;4.25;;;;;;;9.90;51.62;102701.97;7395422;19;20006;-59
2022/10/12 00:58:07;;;;;;;10.38;3.40;;;;;;;9.84;51.72;102714.06;7390750;19;20005;-59
2022/10/12 01:00:35;;;;;;;11.32;3.85;;;;;;;9.82;51.24;102700.69;7393761;19;20002;-59
2022/10/12 01:03:01;;;;;;;14.32;3.70;;;;;;;10.04;50.85;102707.56;7392387;19;20453;-59
2022/10/12 01:05:27;;;;;;;13.27;4.20;;;;;;;10.14;50.12;102705.50;7394308;19;20073;-59
2022/10/12 01:07:53;;;;;;;12.57;3.45;;;;;;;10.01;50.35;102703.47;7392993;19;20006;-59
2022/10/12 01:10:18;;;;;;;8.95;3.30;;;;;;;9.74;50.81;102704.06;7392680;19;20467;-59
2022/10/12 01:12:47;;;;;;;12.18;4.03;;;;;;;9.57;51.45;102701.75;7394487;19;20010;-59
2022/10/12 01:15:12;;;;;;;12.13;3.75;;;;;;;9.51;51.46;102706.41;7392112;19;20503;-59
2022/10/12 01:17:53;;;;;;;14.77;3.65;;;;;;;9.76;51.01;102699.13;7393437;19;19995;-59
2022/10/12 01:20:34;;;;;;;11.68;3.72;;;;;;;9.96;50.05;102698.88;7391726;19;20005;-59
2022/10/12 01:23:18;;;;;;;12.55;3.75;;;;;;;10.12;49.61;102704.19;7393146;19;19998;-59
2022/10/12 01:26:08;;;;;;;11.73;3.45;;;;;;;10.10;49.68;102700.91;7394676;19;19998;-58
2022/10/12 01:28:47;;;;;;;12.10;3.70;;;;;;;9.94;50.01;102698.38;7392018;19;20002;-58
2022/10/12 01:31:25;;;;;;;14.30;3.55;;;;;;;9.89;50.28;102700.34;7390715;19;19991;-58
2022/10/12 01:34:24;;;;;;;9.40;4.03;;;;;;;9.88;50.20;102699.53;7389831;19;20066;-58
2022/10/12 01:37:08;;;;;;;15.13;4.35;;;;;;;9.59;50.79;102691.41;7391366;19;20468;-59
2022/10/12 01:39:40;;;;;;;13.73;4.43;;;;;;;9.52;51.21;102697.16;7392928;19;20002;-59
2022/10/12 01:42:15;;;;;;;10.90;4.03;;;;;;;9.38;51.30;102690.75;7392403;19;20003;-58
2022/10/12 01:44:40;;;;;;;13.55;4.22;;;;;;;9.19;51.67;102687.91;7392654;19;19999;-58
2022/10/12 01:47:06;;;;;;;11.10;3.45;;;;;;;9.58;50.99;102687.00;7392560;19;20023;-58
2022/10/12 01:49:33;;;;;;;12.13;3.55;;;;;;;9.84;49.92;102686.78;7391787;19;20137;-58
2022/10/12 01:52:05;;;;;;;13.48;3.70;;;;;;;10.02;49.30;102691.47;7393121;19;20003;-58
2022/10/12 01:55:07;;;;;;;13.85;4.03;;;;;;;10.04;49.20;102683.00;7392452;19;20002;-58
2022/10/12 01:57:46;;;;;;;11.85;4.05;;;;;;;9.72;49.72;102673.53;7391357;19;20014;-59
2022/10/12 02:00:14;;;;;;;12.18;3.47;;;;;;;9.74;49.75;102676.78;7391825;19;20341;-59
2022/10/12 02:03:22;;;;;;;11.70;3.90;;;;;;;9.34;50.44;102679.59;7392424;19;20022;-59
2022/10/12 02:06:10;;;;;;;11.02;3.58;;;;;;;9.11;51.25;102670.25;7389965;19;20120;-59
2022/10/12 02:09:02;;;;;;;16.23;3.83;;;;;;;9.05;51.40;102672.22;7390011;19;20013;-59
2022/10/12 02:11:29;;;;;;;10.65;3.85;;;;;;;8.97;51.74;102669.31;7391649;19;20042;-58
2022/10/12 02:14:06;;;;;;;14.18;3.90;;;;;;;8.99;51.85;102676.09;7391411;19;20026;-59
2022/10/12 02:16:41;;;;;;;13.68;3.90;;;;;;;9.06;51.57;102678.47;7391511;19;20003;-59
2022/10/12 02:19:11;;;;;;;16.67;4.32;;;;;;;9.25;51.10;102673.16;7391270;19;20006;-59
2022/10/12 02:21:37;;;;;;;12.82;4.05;;;;;;;9.45;50.53;102663.97;7389906;19;20032;-59
2022/10/12 02:24:06;;;;;;;15.52;4.75;;;;;;;9.39;50.76;102665.13;7392745;19;20007;-59
2022/10/12 02:26:36;;;;;;;11.27;3.47;;;;;;;9.36;51.17;102655.59;7391414;19;20002;-59
2022/10/12 02:29:07;;;;;;;14.32;4.35;;;;;;;9.42;50.89;102654.44;7392002;19;20007;-59
2022/10/12 02:31:36;;;;;;;13.75;4.40;;;;;;;9.39;50.98;102651.50;7388751;19;20003;-59
2022/10/12 02:34:17;;;;;;;16.50;4.32;;;;;;;9.41;51.28;102646.56;7389906;19;20101;-59
2022/10/12 02:37:08;;;;;;;12.45;4.00;;;;;;;9.60;50.78;102652.09;7391903;19;20002;-59
2022/10/12 02:39:44;;;;;;;12.38;4.05;;;;;;;9.69;50.22;102650.38;7389058;19;20007;-59
2022/10/12 02:42:15;;;;;;;12.95;3.60;;;;;;;9.80;49.60;102648.34;7390051;19;20058;-59
2022/10/12 02:44:43;;;;;;;9.65;3.20;;;;;;;9.68;49.38;102639.75;7391402;19;20002;-59
2022/10/12 02:47:10;;;;;;;8.38;2.97;;;;;;;9.69;48.98;102642.19;7391423;19;20006;-59
2022/10/12 02:49:37;;;;;;;12.68;3.60;;;;;;;9.67;49.01;102643.59;7390896;19;19999;-59
2022/10/12 02:52:05;;;;;;;12.63;3.58;;;;;;;9.51;49.30;102641.00;7390769;19;20078;-59
2022/10/12 02:54:31;;;;;;;14.35;3.70;;;;;;;9.35;49.59;102629.47;7389968;19;20062;-59
2022/10/12 02:56:57;;;;;;;12.30;3.88;;;;;;;9.47;49.56;102639.97;7391465;19;19999;-58
2022/10/12 02:59:32;;;;;;;11.90;3.80;;;;;;;9.59;49.04;102632.22;7388033;19;20431;-59
2022/10/12 03:01:58;;;;;;;13.02;3.65;;;;;;;9.58;49.09;102630.59;7390658;19;20015;-59
2022/10/12 03:04:23;;;;;;;14.10;3.78;;;;;;;9.54;49.13;102629.53;7390832;19;19994;-59
2022/10/12 03:06:49;;;;;;;14.32;4.38;;;;;;;9.48;49.22;102619.75;7390928;19;20002;-59
2022/10/12 03:09:14;;;;;;;9.60;3.38;;;;;;;9.37;49.47;102618.28;7390214;19;20003;-59
2022/10/12 03:11:43;;;;;;;16.30;3.50;;;;;;;8.94;50.47;102621.66;7387507;19;20082;-59
2022/10/12 03:14:11;;;;;;;10.82;4.07;;;;;;;8.85;51.07;102618.75;7390542;19;19999;-59
2022/10/12 03:16:36;;;;;;;11.02;4.10;;;;;;;8.75;50.83;102616.09;7390213;19;20034;-58
2022/10/12 03:19:02;;;;;;;14.63;3.80;;;;;;;8.83;50.72;102625.56;7390046;19;19998;-59
2022/10/12 03:21:28;;;;;;;9.90;3.85;;;;;;;8.68;50.85;102621.88;7390108;19;20014;-58
2022/10/12 03:23:53;;;;;;;10.50;3.92;;;;;;;8.76;50.87;102623.16;7389039;19;20009;-58
2022/10/12 03:26:19;;;;;;;14.07;3.55;;;;;;;8.85;50.34;102618.75;7388208;19;20003;-58
2022/10/12 03:28:44;;;;;;;11.05;3.78;;;;;;;8.78;50.64;102617.44;7385904;19;19995;-58
2022/10/12 03:31:10;;;;;;;9.43;3.72;;;;;;;9.10;49.62;102622.34;7388299;19;19998;-58
2022/10/12 03:33:49;;;;;;;11.50;3.70;;;;;;;8.83;50.42;102617.38;7391112;19;20003;-58
2022/10/12 03:36:14;;;;;;;13.85;3.97;;;;;;;8.67;50.71;102619.44;7395278;19;20022;-59
2022/10/12 03:38:40;;;;;;;11.65;3.70;;;;;;;8.97;49.99;102620.28;7392601;19;20016;-58
2022/10/12 03:41:05;;;;;;;13.20;4.13;;;;;;;9.09;49.48;102621.50;7396904;19;20021;-59
2022/10/12 03:43:31;;;;;;;10.20;3.55;;;;;;;8.80;50.34;102620.69;7397375;19;19998;-58
2022/10/12 03:45:57;;;;;;;11.45;3.60;;;;;;;8.59;50.62;102620.03;7395627;19;20017;-59
2022/10/12 03:48:23;;;;;;;14.20;4.20;;;;;;;8.44;50.98;102619.03;7392318;19;20006;-59
2022/10/12 03:50:49;;;;;;;12.13;3.63;;;;;;;8.44;50.86;102618.22;7395088;19;19998;-59
2022/10/12 03:53:16;;;;;;;11.43;3.72;;;;;;;8.39;51.00;102620.97;7397416;19;20002;-59
2022/10/12 03:55:41;;;;;;;14.30;4.28;;;;;;;8.85;49.95;102620.66;7396993;19;20003;-58
2022/10/12 03:58:07;;;;;;;11.75;3.60;;;;;;;8.98;49.56;102621.91;7393812;19;20412;-59
2022/10/12 04:00:33;;;;;;;15.35;3.88;;;;;;;9.04;49.18;102618.03;7397360;19;20030;-59
2022/10/12 04:02:58;;;;;;;15.05;4.28;;;;;;;8.93;49.17;102625.47;7396503;19;20288;-59
2022/10/12 04:05:24;;;;;;;10.40;3.88;;;;;;;8.62;50.12;102624.91;7396938;19;19999;-59
2022/10/12 04:07:50;;;;;;;11.23;3.58;;;;;;;8.44;50.47;102624.47;7394374;19;20009;-59
2022/10/12 04:10:15;;;;;;;15.50;4.22;;;;;;;8.26;51.18;102627.81;7394704;19;20003;-59
2022/10/12 04:12:41;;;;;;;16.40;3.95;;;;;;;8.15;51.51;102625.16;7396717;19;20014;-60
2022/10/12 04:15:07;;;;;;;14.57;4.15;;;;;;;8.21;51.30;102622.41;7396011;19;20002;-59
2022/10/12 04:17:33;;;;;;;12.32;4.47;;;;;;;8.23;51.40;102622.94;7394762;19;20006;-58
2022/10/12 04:19:58;;;;;;;10.35;4.15;;;;;;;8.18;51.62;102622.97;7394709;19;20032;-59
2022/10/12 04:22:24;;;;;;;14.95;4.28;;;;;;;8.25;51.04;102626.22;7393922;19;20043;-58
2022/10/12 04:24:49;;;;;;;11.75;4.03;;;;;;;8.45;50.35;102626.13;7395986;19;20006;-58
2022/10/12 04:27:15;;;;;;;12.48;3.72;;;;;;;8.68;49.77;102618.31;7394579;19;20007;-59
2022/10/12 04:29:41;;;;;;;11.55;3.58;;;;;;;8.88;49.38;102618.19;7395442;19;20002;-58
2022/10/12 04:32:06;;;;;;;11.80;3.45;;;;;;;8.92;48.99;102620.34;7395543;19;20466;-58
2022/10/12 04:34:34;;;;;;;13.55;4.20;;;;;;;8.90;49.30;102615.16;7389207;19;20540;-58
2022/10/12 04:37:00;;;;;;;12.02;3.83;;;;;;;8.96;49.06;102618.66;7394511;19;19998;-58
2022/10/12 04:39:26;;;;;;;12.75;4.15;;;;;;;8.98;48.87;102616.44;7393129;19;20022;-57
2022/10/12 04:41:51;;;;;;;12.38;4.10;;;;;;;8.94;49.11;102616.22;7394938;19;19999;-57
2022/10/12 04:44:17;;;;;;;11.60;4.82;;;;;;;8.79;49.24;102619.06;7394162;19;20005;-58
2022/10/12 04:46:42;;;;;;;12.10;4.05;;;;;;;8.43;50.21;102622.88;7395069;19;19998;-57
2022/10/12 04:49:08;;;;;;;16.08;4.65;;;;;;;8.27;50.76;102624.00;7391616;19;20339;-58
2022/10/12 04:51:33;;;;;;;13.73;4.72;;;;;;;8.18;51.15;102621.09;7391169;19;19998;-58
2022/10/12 04:53:59;;;;;;;14.52;4.63;;;;;;;8.14;51.13;102626.25;7392444;19;20007;-58
2022/10/12 04:56:25;;;;;;;12.50;4.22;;;;;;;8.01;51.54;102626.03;7394114;19;19998;-58
2022/10/12 04:58:50;;;;;;;13.40;4.25;;;;;;;8.44;50.63;102620.94;7391751;19;19994;-58
2022/10/12 05:01:16;;;;;;;15.18;5.55;;;;;;;8.41;50.53;102625.03;7394477;19;19991;-58
2022/10/12 05:03:42;;;;;;;12.13;5.13;;;;;;;8.57;49.96;102622.22;7392013;19;20030;-58
2022/10/12 05:06:07;;;;;;;11.50;4.43;;;;;;;8.72;49.29;102619.41;7393829;19;20006;-58
2022/10/12 05:08:33;;;;;;;13.32;4.43;;;;;;;8.90;49.01;102620.63;7391184;19;19998;-58
2022/10/12 05:10:59;;;;;;;14.80;4.95;;;;;;;8.59;49.94;102612.66;7392752;19;20054;-58
2022/10/12 05:13:25;;;;;;;14.77;5.25;;;;;;;8.72;49.54;102611.22;7394058;19;20289;-58
2022/10/12 05:15:51;;;;;;;15.85;5.20;;;;;;;8.44;49.92;102616.31;7394135;19;19995;-58
2022/10/12 05:18:17;;;;;;;12.13;4.38;;;;;;;8.13;50.55;102619.19;7391466;19;19994;-58
2022/10/12 05:20:43;;;;;;;14.52;4.70;;;;;;;8.28;50.30;102620.19;7393631;19;20094;-58
2022/10/12 05:23:10;;;;;;;17.13;5.07;;;;;;;8.38;49.89;102620.19;7393537;19;20649;-57
2022/10/12 05:25:35;;;;;;;17.77;5.45;;;;;;;8.51;49.42;102619.56;7393505;19;19991;-57
2022/10/12 05:28:01;;;;;;;14.57;5.07;;;;;;;8.55;49.48;102619.78;7392324;19;19998;-58
2022/10/12 05:30:27;;;;;;;12.98;5.25;;;;;;;8.44;49.28;102618.22;7390830;19;20020;-58
2022/10/12 05:32:52;;;;;;;13.15;5.47;;;;;;;8.15;49.87;102619.72;7390626;19;20007;-58
2022/10/12 05:35:18;;;;;;;17.20;5.90;;;;;;;7.98;50.33;102611.91;7392814;19;20002;-57
2022/10/12 05:37:44;;;;;;;16.48;4.82;;;;;;;8.28;49.54;102621.03;7391981;19;20058;-58
2022/10/12 05:40:10;;;;;;;13.15;5.00;;;;;;;8.41;49.21;102616.88;7392534;19;20015;-57
2022/10/12 05:42:36;;;;;;;13.43;4.88;;;;;;;8.47;49.26;102613.03;7393024;19;20007;-58
2022/10/12 05:45:02;;;;;;;15.98;5.13;;;;;;;8.46;49.18;102616.84;7391879;19;20038;-58
2022/10/12 05:47:27;;;;;;;14.40;4.72;;;;;;;8.06;50.01;102612.41;7392198;19;20511;-58
2022/10/12 05:49:53;;;;;;;13.13;4.82;;;;;;;7.82;50.76;102620.44;7392052;19;20082;-58
2022/10/12 05:52:19;;;;;;;15.10;5.07;;;;;;;7.72;51.21;102624.00;7389759;19;19995;-58
2022/10/12 05:54:44;;;;;;;16.27;5.68;;;;;;;7.84;51.03;102618.22;7391374;19;20002;-58
2022/10/12 05:57:10;;;;;;;14.93;5.30;;;;;;;7.77;50.94;102626.69;7388811;19;20071;-58
2022/10/12 05:59:35;;;;;;;14.30;5.65;;;;;;;7.78;51.17;102620.19;7392535;19;20070;-58
2022/10/12 06:02:01;;;;;;;15.73;6.68;;;;;;;7.71;51.47;102628.63;7391991;19;20651;-58
2022/10/12 06:04:27;;;;;;;14.18;6.07;;;;;;;7.81;51.18;102616.06;7391308;19;20073;-58
2022/10/12 06:06:53;;;;;;;19.80;8.25;;;;;;;7.66;50.93;102620.47;7390048;19;20016;-58
2022/10/12 06:09:18;;;;;;;22.17;9.48;;;;;;;7.64;50.98;102622.66;7391726;19;20467;-58
2022/10/12 06:11:44;;;;;;;16.95;7.25;;;;;;;7.92;50.72;102613.03;7391301;19;20003;-58
2022/10/12 06:14:09;;;;;;;14.23;6.53;;;;;;;8.26;49.61;102616.94;7392812;19;20475;-58
2022/10/12 06:16:34;;;;;;;17.25;5.57;;;;;;;8.36;49.32;102608.75;7392271;19;20003;-58
2022/10/12 06:19:00;;;;;;;14.93;5.93;;;;;;;8.15;49.67;102619.72;7390759;19;20022;-58
2022/10/12 06:21:26;;;;;;;17.65;5.55;;;;;;;7.85;50.40;102617.16;7392270;19;20002;-58
2022/10/12 06:23:51;;;;;;;12.73;5.40;;;;;;;8.28;49.77;102614.75;7392725;19;20003;-58
2022/10/12 06:26:17;;;;;;;16.33;5.65;;;;;;;8.38;49.39;102612.03;7391934;19;20011;-58
2022/10/12 06:28:42;;;;;;;16.35;5.95;;;;;;;8.43;49.27;102602.97;7387356;19;20007;-58
2022/10/12 06:31:09;;;;;;;15.80;5.95;;;;;;;8.34;49.73;102608.22;7388935;19;20458;-58
2022/10/12 06:33:35;;;;;;;13.45;5.57;;;;;;;8.17;50.34;102611.28;7389596;19;20034;-58
2022/10/12 06:36:00;;;;;;;15.68;6.35;;;;;;;8.05;50.70;102608.91;7391747;19;20386;-57
2022/10/12 06:38:26;;;;;;;16.42;6.82;;;;;;;8.04;50.60;102614.63;7387437;19;20006;-58
2022/10/12 06:40:52;;;;;;;13.32;6.00;;;;;;;8.03;50.71;102612.97;7391435;19;20484;-58
2022/10/12 06:43:18;;;;;;;18.58;6.18;;;;;;;8.37;50.11;102612.28;7391423;19;20557;-57
2022/10/12 06:45:44;;;;;;;14.15;6.15;;;;;;;8.65;49.48;102610.75;7391012;19;20003;-57
2022/10/12 06:48:10;;;;;;;14.75;5.18;;;;;;;8.27;50.49;102603.06;7387418;19;20678;-58
2022/10/12 06:50:36;;;;;;;18.80;6.47;;;;;;;8.15;50.80;102617.00;7390498;19;20011;-58
2022/10/12 06:53:02;;;;;;;12.90;6.18;;;;;;;8.18;51.15;102615.63;7390677;19;20005;-57
2022/10/12 06:55:28;;;;;;;15.23;6.95;;;;;;;8.27;51.32;102624.00;7390763;19;20006;-57
2022/10/12 06:57:55;;;;;;;14.85;6.47;;;;;;;8.28;51.61;102617.47;7389651;19;20003;-58
2022/10/12 07:00:21;;;;;;;17.95;7.18;;;;;;;8.29;51.48;102616.38;7390016;19;20007;-57
2022/10/12 07:02:50;;;;;;;20.75;7.20;;;;;;;8.31;51.42;102623.19;7390276;19;20434;-58
2022/10/12 07:05:16;;;;;;;18.80;7.05;;;;;;;8.41;51.38;102624.22;7390951;19;19995;-58
2022/10/12 07:07:42;;;;;;;18.23;7.03;;;;;;;8.41;51.59;102616.88;7393515;19;20002;-57
2022/10/12 07:10:08;;;;;;;15.93;7.10;;;;;;;8.43;51.97;102619.31;7397286;19;20496;-57
2022/10/12 07:12:35;;;;;;;16.20;7.35;;;;;;;8.58;51.80;102613.78;7398822;19;20001;-57
2022/10/12 07:15:01;;;;;;;18.15;7.63;;;;;;;8.64;51.79;102617.28;7397452;19;20411;-58
2022/10/12 07:17:26;;;;;;;16.92;7.30;;;;;;;8.72;51.59;102619.41;7396969;19;20494;-58
2022/10/12 07:19:52;;;;;;;16.65;7.20;;;;;;;8.89;51.40;102610.81;7397007;19;19999;-58
2022/10/12 07:22:17;;;;;;;17.27;7.80;;;;;;;8.97;51.33;102614.84;7397926;19;19991;-58
2022/10/12 07:24:43;;;;;;;16.73;7.18;;;;;;;9.03;51.25;102605.50;7398889;19;20005;-58
2022/10/12 07:27:10;;;;;;;18.85;7.78;;;;;;;9.05;51.11;102603.34;7397077;19;20414;-57
2022/10/12 07:29:38;;;;;;;19.30;7.60;;;;;;;9.02;51.42;102606.63;7396871;19;19998;-57
2022/10/12 07:32:06;;;;;;;21.10;7.10;;;;;;;9.14;51.55;102604.31;7394954;19;20006;-57
2022/10/12 07:34:31;;;;;;;16.35;7.53;;;;;;;9.31;51.17;102608.50;7395702;19;20006;-57
2022/10/12 07:36:57;;;;;;;16.83;7.10;;;;;;;9.40;51.04;102614.94;7396704;19;20478;-58
2022/10/12 07:39:23;;;;;;;17.35;7.63;;;;;;;9.38;51.37;102612.53;7397850;19;20292;-58
2022/10/12 07:41:50;;;;;;;16.30;8.02;;;;;;;9.33;51.72;102612.56;7397490;19;20002;-58
2022/10/12 07:44:17;;;;;;;19.23;7.10;;;;;;;9.54;51.18;102612.38;7396763;19;20002;-57
2022/10/12 07:46:42;;;;;;;18.50;7.80;;;;;;;9.55;51.18;102609.34;7395338;19;20006;-57
2022/10/12 07:49:11;;;;;;;14.23;7.45;;;;;;;9.76;51.06;102609.94;7395087;19;20006;-58
2022/10/12 07:51:36;;;;;;;21.02;7.72;;;;;;;9.81;50.89;102617.25;7392865;19;20007;-57
2022/10/12 07:54:02;;;;;;;15.80;7.70;;;;;;;9.84;51.33;102618.59;7396088;19;20026;-58
2022/10/12 07:56:27;;;;;;;21.63;7.47;;;;;;;9.88;51.47;102612.25;7397072;19;20583;-57
2022/10/12 07:58:55;;;;;;;19.55;7.80;;;;;;;10.03;51.22;102610.44;7392729;19;20002;-57
2022/10/12 08:01:23;;;;;;;17.13;7.95;;;;;;;10.20;50.97;102621.63;7397183;19;20006;-57
2022/10/12 08:03:49;;;;;;;16.80;8.20;;;;;;;10.31;50.66;102620.41;7395708;19;20040;-58
2022/10/12 08:06:18;;;;;;;17.17;7.25;;;;;;;10.40;50.71;102614.28;7397626;19;20451;-58
2022/10/12 08:08:44;;;;;;;15.82;6.80;;;;;;;10.56;50.56;102621.13;7392534;19;20016;-58
2022/10/12 08:11:10;;;;;;;27.83;7.40;;;;;;;10.64;50.28;102608.72;7394672;19;20461;-58
2022/10/12 08:13:36;;;;;;;28.10;8.05;;;;;;;10.62;50.84;102616.38;7394391;19;20148;-58
2022/10/12 08:16:04;;;;;;;28.55;8.15;;;;;;;10.75;50.36;102618.34;7394851;19;20023;-58
2022/10/12 08:18:29;;;;;;;17.73;7.40;;;;;;;10.83;50.66;102620.44;7391930;19;20013;-58
2022/10/12 08:20:55;;;;;;;20.15;7.88;;;;;;;10.92;50.44;102613.19;7396372;19;20318;-57
2022/10/12 08:23:21;;;;;;;16.48;6.35;;;;;;;11.01;50.01;102620.72;7395069;19;20349;-57
2022/10/12 08:25:55;;;;;;;19.15;6.07;;;;;;;11.11;50.08;102615.06;7395449;19;19999;-58
2022/10/12 08:28:21;;;;;;;19.65;5.50;;;;;;;11.24;49.63;102613.47;7392910;19;20066;-58
2022/10/12 08:30:47;;;;;;;16.00;5.03;;;;;;;11.27;49.36;102623.78;7394611;19;20011;-58
2022/10/12 08:33:12;;;;;;;15.57;5.28;;;;;;;11.33;49.53;102614.38;7393088;19;20002;-57
2022/10/12 08:35:39;;;;;;;20.67;6.03;;;;;;;11.37;49.83;102623.63;7393283;19;20058;-58
2022/10/12 08:38:06;;;;;;;17.15;6.10;;;;;;;11.47;49.38;102612.47;7392024;19;20122;-58
2022/10/12 08:40:35;;;;;;;17.45;5.88;;;;;;;11.53;49.27;102612.38;7394692;19;20006;-58
2022/10/12 08:43:14;;;;;;;16.98;4.97;;;;;;;11.53;49.16;102612.38;7395024;19;19999;-57
2022/10/12 08:46:01;;;;;;;16.50;4.70;;;;;;;11.56;49.21;102609.03;7395187;19;20026;-58
2022/10/12 08:48:44;;;;;;;16.00;5.18;;;;;;;11.63;48.97;102603.97;7392451;19;19991;-58
2022/10/12 08:51:15;;;;;;;20.58;4.57;;;;;;;11.75;48.58;102601.50;7390565;19;20006;-57
2022/10/12 08:53:52;;;;;;;13.48;4.68;;;;;;;11.81;48.60;102594.03;7395842;19;20022;-57
2022/10/12 08:56:19;;;;;;;14.85;4.60;;;;;;;11.90;48.60;102600.41;7394981;19;20014;-58
2022/10/12 08:58:46;;;;;;;15.30;4.07;;;;;;;11.95;48.32;102599.50;7391915;19;20002;-58
2022/10/12 09:01:20;;;;;;;17.90;4.03;;;;;;;12.06;47.72;102594.59;7394845;19;20071;-57
2022/10/12 09:04:00;;;;;;;14.77;3.95;;;;;;;12.23;47.07;102590.09;7394627;19;20002;-58
2022/10/12 09:06:32;;;;;;;13.30;3.78;;;;;;;12.43;46.67;102587.22;7394924;19;20002;-58
2022/10/12 09:08:57;;;;;;;17.63;3.55;;;;;;;12.50;46.36;102582.91;7391968;19;20006;-55
2022/10/12 09:12:00;;;;;;;17.35;3.83;;;;;;;12.57;46.05;102583.28;7393480;19;19999;-55
2022/10/12 09:14:31;;;;;;;13.68;3.47;;;;;;;12.59;46.50;102581.03;7392341;19;20507;-56
2022/10/12 09:17:00;;;;;;;14.85;3.33;;;;;;;12.65;46.39;102580.91;7393823;19;20360;-56
2022/10/12 09:19:37;;;;;;;13.32;3.72;;;;;;;12.71;45.81;102574.19;7392640;19;20005;-56
2022/10/12 09:22:08;;;;;;;13.00;4.38;;;;;;;12.70;45.67;102575.31;7392864;19;20090;-56
2022/10/12 09:24:38;;;;;;;13.35;3.50;;;;;;;12.68;45.42;102572.88;7393433;19;20343;-56
2022/10/12 09:27:14;;;;;;;15.23;3.80;;;;;;;12.67;45.24;102584.13;7393589;19;19999;-55
2022/10/12 09:29:40;;;;;;;12.23;3.50;;;;;;;12.74;45.20;102581.75;7391439;19;20010;-55
2022/10/12 09:32:32;;;;;;;18.40;5.15;;;;;;;12.71;44.81;102580.47;7389500;19;20106;-56
2022/10/12 09:34:58;;;;;;;16.65;3.40;;;;;;;12.74;44.98;102576.28;7389124;19;19995;-55
2022/10/12 09:37:29;;;;;;;17.35;3.22;;;;;;;12.73;45.06;102577.41;7393762;19;20015;-55
2022/10/12 09:39:56;;;;;;;13.70;3.70;;;;;;;12.74;45.03;102574.38;7392002;19;19998;-55
2022/10/12 09:42:21;;;;;;;13.50;3.10;;;;;;;12.79;45.04;102567.94;7394023;19;20010;-55
2022/10/12 09:44:49;;;;;;;13.15;3.17;;;;;;;12.79;44.84;102573.41;7393368;19;20325;-56
2022/10/12 09:47:23;;;;;;;14.18;3.80;;;;;;;12.88;44.76;102566.09;7392040;19;20002;-55
2022/10/12 09:49:50;;;;;;;11.55;2.53;;;;;;;12.65;44.69;102567.22;7392209;19;20337;-55
2022/10/12 09:52:23;;;;;;;13.43;3.22;;;;;;;12.84;44.35;102569.72;7393246;19;19998;-55
2022/10/12 09:55:04;;;;;;;11.57;2.17;;;;;;;12.84;43.72;102573.31;7392286;19;20546;-55
2022/10/12 09:57:32;;;;;;;11.45;2.70;;;;;;;12.95;43.81;102574.66;7393081;19;20030;-54
2022/10/12 10:00:00;;;;;;;14.13;2.90;;;;;;;13.05;43.61;102570.84;7389791;19;19991;-55
2022/10/12 10:02:26;;;;;;;20.75;3.40;;;;;;;13.11;43.65;102569.59;7392032;19;20070;-54
2022/10/12 10:04:52;;;;;;;11.30;3.22;;;;;;;13.14;43.60;102570.88;7393081;19;20002;-55
2022/10/12 10:07:44;;;;;;;12.00;2.95;;;;;;;13.18;43.30;102568.34;7392339;19;20301;-56
2022/10/12 10:10:24;;;;;;;13.13;2.92;;;;;;;13.15;43.66;102569.78;7389066;19;20058;-54
2022/10/12 10:13:01;;;;;;;14.00;3.05;;;;;;;13.23;43.26;102570.94;7391077;19;19999;-55
2022/10/12 10:15:27;;;;;;;13.18;3.30;;;;;;;13.20;43.36;102558.66;7392309;19;20005;-56
2022/10/12 10:17:59;;;;;;;15.18;2.75;;;;;;;13.32;43.38;102550.63;7390847;19;19999;-56
2022/10/12 10:20:52;;;;;;;12.20;2.85;;;;;;;13.35;43.25;102545.66;7391616;19;20341;-53
2022/10/12 10:23:24;;;;;;;10.48;2.83;;;;;;;13.40;43.53;102546.31;7391430;19;20007;-55
2022/10/12 10:26:12;;;;;;;13.02;2.50;;;;;;;13.47;43.07;102537.59;7390870;19;20305;-56
2022/10/12 10:28:47;;;;;;;13.68;2.80;;;;;;;13.51;43.15;102536.66;7389141;19;20015;-55
2022/10/12 10:31:12;;;;;;;10.75;2.40;;;;;;;13.55;42.86;102530.53;7388817;19;20350;-55
2022/10/12 10:33:39;;;;;;;12.32;2.22;;;;;;;13.56;42.99;102534.88;7390625;19;20011;-55
2022/10/12 10:36:25;;;;;;;11.52;2.53;;;;;;;13.55;42.51;102533.28;7392828;19;20002;-55
2022/10/12 10:39:13;;;;;;;11.40;2.75;;;;;;;13.63;42.48;102525.06;7387697;19;20023;-55
2022/10/12 10:41:41;;;;;;;12.32;2.95;;;;;;;13.72;42.29;102527.00;7391570;19;19998;-56
2022/10/12 10:44:23;;;;;;;10.77;2.75;;;;;;;13.69;42.37;102528.44;7390735;19;20006;-56
2022/10/12 10:46:49;;;;;;;10.27;2.30;;;;;;;13.67;42.17;102526.03;7390928;19;20006;-55
2022/10/12 10:49:41;;;;;;;10.75;2.22;;;;;;;13.70;42.01;102525.38;7390312;19;20013;-55
2022/10/12 10:52:37;;;;;;;13.32;2.80;;;;;;;13.69;42.14;102523.78;7389250;19;20025;-55
2022/10/12 10:55:09;;;;;;;13.65;2.97;;;;;;;13.64;41.90;102529.44;7388032;19;20002;-56
2022/10/12 10:57:38;;;;;;;13.32;3.05;;;;;;;13.66;42.25;102515.38;7388900;19;20006;-56
2022/10/12 11:00:14;;;;;;;10.43;2.45;;;;;;;13.68;42.00;102521.38;7389385;19;19995;-56
2022/10/12 11:03:05;;;;;;;19.85;3.22;;;;;;;13.73;42.03;102510.22;7390377;19;20478;-56
2022/10/12 11:05:39;;;;;;;10.60;2.38;;;;;;;13.79;41.59;102508.13;7388354;19;20486;-55
2022/10/12 11:08:14;;;;;;;13.15;2.53;;;;;;;13.89;41.61;102510.56;7388827;19;20347;-55
2022/10/12 11:10:52;;;;;;;14.38;2.60;;;;;;;13.89;41.65;102499.59;7389464;19;20003;-56
2022/10/12 11:13:22;;;;;;;11.45;2.70;;;;;;;13.94;41.72;102499.44;7390721;19;20441;-55
2022/10/12 11:15:54;;;;;;;12.20;3.40;;;;;;;14.01;41.41;102497.03;7390971;19;19999;-56
2022/10/12 11:18:48;;;;;;;9.20;2.15;;;;;;;14.02;40.84;102495.09;7387947;19;20006;-56
2022/10/12 11:21:21;;;;;;;9.27;2.92;;;;;;;14.09;41.36;102481.66;7389955;19;20011;-56
2022/10/12 11:24:14;;;;;;;9.90;2.65;;;;;;;14.10;41.56;102487.97;7390324;19;20437;-56
2022/10/12 11:27:08;;;;;;;10.88;2.67;;;;;;;13.99;40.57;102482.81;7388674;19;20006;-56
2022/10/12 11:29:35;;;;;;;11.93;2.67;;;;;;;14.07;41.08;102479.25;7389312;19;20003;-56
2022/10/12 11:32:13;;;;;;;12.20;2.80;;;;;;;14.16;41.13;102470.19;7387438;19;20260;-56
2022/10/12 11:34:52;;;;;;;11.40;3.10;;;;;;;14.18;41.22;102460.50;7388795;19;20030;-56